createdAt,value
2022-12-28T00:01:24.649Z,3.00
2022-12-28T00:03:52.756Z,3.00
2022-12-28T00:06:21.896Z,3.03
2022-12-28T00:08:48.350Z,3.05
2022-12-28T00:11:27.601Z,3.06
2022-12-28T00:13:58.025Z,3.08
2022-12-28T00:16:28.481Z,3.05
2022-12-28T00:18:57.520Z,3.06
2022-12-28T00:21:24.583Z,3.07
2022-12-28T00:23:52.808Z,3.08
2022-12-28T00:26:19.995Z,3.08
2022-12-28T00:28:46.870Z,3.11
2022-12-28T00:31:14.445Z,3.12
2022-12-28T00:33:41.152Z,3.14
2022-12-28T00:36:07.890Z,3.14
2022-12-28T00:38:37.435Z,3.17
2022-12-28T00:41:06.501Z,3.18
2022-12-28T00:43:33.092Z,3.21
2022-12-28T00:45:59.738Z,3.20
2022-12-28T00:48:26.304Z,3.21
2022-12-28T00:50:52.866Z,3.21
2022-12-28T00:53:19.518Z,3.24
2022-12-28T00:55:46.126Z,3.25
2022-12-28T00:58:12.568Z,3.27
2022-12-28T01:00:39.139Z,3.26
2022-12-28T01:03:05.703Z,3.29
2022-12-28T01:05:32.290Z,3.29
2022-12-28T01:07:58.782Z,3.28
2022-12-28T01:10:25.204Z,3.27
2022-12-28T01:12:51.660Z,3.31
2022-12-28T01:15:19.371Z,3.31
2022-12-28T01:17:46.751Z,3.31
2022-12-28T01:20:13.180Z,3.28
2022-12-28T01:22:39.796Z,3.34
2022-12-28T01:25:07.042Z,3.34
2022-12-28T01:27:37.019Z,3.33
2022-12-28T01:30:05.057Z,3.34
2022-12-28T01:32:31.567Z,3.37
2022-12-28T01:34:58.014Z,3.38
2022-12-28T01:37:24.422Z,3.40
2022-12-28T01:39:50.844Z,3.41
2022-12-28T01:42:19.454Z,3.40
2022-12-28T01:44:52.305Z,3.38
2022-12-28T01:47:26.673Z,3.40
2022-12-28T01:50:02.383Z,3.42
2022-12-28T01:52:44.878Z,3.46
2022-12-28T01:55:24.710Z,3.47
2022-12-28T01:58:01.288Z,3.53
2022-12-28T02:00:28.059Z,3.55
2022-12-28T02:03:02.210Z,3.61
2022-12-28T02:05:34.453Z,3.63
2022-12-28T02:08:13.479Z,3.65
2022-12-28T02:10:45.837Z,3.66
2022-12-28T02:13:15.565Z,3.68
2022-12-28T02:15:42.572Z,3.71
2022-12-28T02:18:09.908Z,3.76
2022-12-28T02:21:22.425Z,3.81
2022-12-28T02:24:30.176Z,3.84
2022-12-28T02:27:24.844Z,3.85
2022-12-28T02:30:08.192Z,3.88
2022-12-28T02:32:47.173Z,3.90
2022-12-28T02:35:30.193Z,3.89
2022-12-28T02:38:11.393Z,3.89
2022-12-28T02:40:45.401Z,3.87
2022-12-28T02:43:12.811Z,3.85
2022-12-28T02:46:05.929Z,3.87
2022-12-28T02:49:02.768Z,3.83
2022-12-28T02:51:41.157Z,3.79
2022-12-28T02:55:03.191Z,3.77
2022-12-28T02:58:06.759Z,3.75
2022-12-28T03:00:50.959Z,3.74
2022-12-28T03:03:23.338Z,3.75
2022-12-28T03:06:26.943Z,3.76
2022-12-28T03:09:21.202Z,3.77
2022-12-28T03:11:53.198Z,3.76
2022-12-28T03:14:26.496Z,3.76
2022-12-28T03:17:17.623Z,3.76
2022-12-28T03:20:15.395Z,3.78
2022-12-28T03:23:02.719Z,3.76
2022-12-28T03:25:53.068Z,3.75
2022-12-28T03:28:48.192Z,3.73
2022-12-28T03:31:19.859Z,3.72
2022-12-28T03:33:54.134Z,3.71
2022-12-28T03:36:20.585Z,3.71
2022-12-28T03:39:00.417Z,3.72
2022-12-28T03:41:41.495Z,3.72
2022-12-28T03:44:32.364Z,3.72
2022-12-28T03:47:18.889Z,3.69
2022-12-28T03:49:45.756Z,3.69
2022-12-28T03:52:12.949Z,3.67
2022-12-28T03:54:40.757Z,3.68
2022-12-28T03:57:08.417Z,3.66
2022-12-28T03:59:39.745Z,3.69
2022-12-28T04:02:07.235Z,3.68
2022-12-28T04:04:33.985Z,3.69
2022-12-28T04:07:00.715Z,3.69
2022-12-28T04:09:27.166Z,3.69
2022-12-28T04:11:54.120Z,3.70
2022-12-28T04:14:32.662Z,3.71
2022-12-28T04:16:59.127Z,3.72
2022-12-28T04:19:25.639Z,3.74
2022-12-28T04:21:52.125Z,3.74
2022-12-28T04:24:18.552Z,3.78
2022-12-28T04:26:45.008Z,3.83
2022-12-28T04:29:12.771Z,3.87
2022-12-28T04:31:46.862Z,3.85
2022-12-28T04:34:17.617Z,3.89
2022-12-28T04:36:54.173Z,3.89
2022-12-28T04:39:22.220Z,3.90
2022-12-28T04:41:48.707Z,3.90
2022-12-28T04:44:15.156Z,3.93
2022-12-28T04:46:41.618Z,3.93
2022-12-28T04:49:08.045Z,3.94
2022-12-28T04:51:35.313Z,3.94
2022-12-28T04:54:01.782Z,3.94
2022-12-28T04:56:28.260Z,3.92
2022-12-28T04:58:59.483Z,3.92
2022-12-28T05:01:26.519Z,3.94
2022-12-28T05:03:57.370Z,3.92
2022-12-28T05:06:27.412Z,3.92
2022-12-28T05:08:55.380Z,3.91
2022-12-28T05:11:24.760Z,3.93
2022-12-28T05:13:51.247Z,3.91
2022-12-28T05:16:20.416Z,3.96
2022-12-28T05:18:46.996Z,3.96
2022-12-28T05:21:16.647Z,3.94
2022-12-28T05:23:43.472Z,3.95
2022-12-28T05:26:13.217Z,3.94
2022-12-28T05:28:40.375Z,3.96
2022-12-28T05:31:10.794Z,3.97
2022-12-28T05:33:37.868Z,3.98
2022-12-28T05:36:05.092Z,3.99
2022-12-28T05:38:32.411Z,4.01
2022-12-28T05:41:26.353Z,4.01
2022-12-28T05:43:53.211Z,3.97
2022-12-28T05:46:24.553Z,3.97
2022-12-28T05:48:51.319Z,3.98
2022-12-28T05:51:21.444Z,3.95
2022-12-28T05:53:48.215Z,3.95
2022-12-28T05:56:18.105Z,3.95
2022-12-28T05:58:46.082Z,3.93
2022-12-28T06:01:17.686Z,3.99
2022-12-28T06:03:45.062Z,4.00
2022-12-28T06:06:17.471Z,4.01
2022-12-28T06:08:45.558Z,4.02
2022-12-28T06:11:15.274Z,4.00
2022-12-28T06:13:42.366Z,4.01
2022-12-28T06:16:20.482Z,4.00
2022-12-28T06:18:47.877Z,3.99
2022-12-28T06:21:16.842Z,4.00
2022-12-28T06:23:44.148Z,4.00
2022-12-28T06:26:13.192Z,4.01
2022-12-28T06:28:40.400Z,4.03
2022-12-28T06:31:08.451Z,4.05
2022-12-28T06:33:35.054Z,4.06
2022-12-28T06:36:02.014Z,4.09
2022-12-28T06:38:31.194Z,4.06
2022-12-28T06:41:13.263Z,4.11
2022-12-28T06:43:43.849Z,4.12
2022-12-28T06:46:12.287Z,4.14
2022-12-28T06:48:39.444Z,4.17
2022-12-28T06:51:14.503Z,4.18
2022-12-28T06:53:41.416Z,4.18
2022-12-28T06:56:11.827Z,4.19
2022-12-28T06:58:38.447Z,4.17
2022-12-28T07:01:19.481Z,4.20
2022-12-28T07:03:47.274Z,4.23
2022-12-28T07:06:16.341Z,4.22
2022-12-28T07:08:43.295Z,4.22
2022-12-28T07:11:17.754Z,4.23
2022-12-28T07:13:44.183Z,4.21
2022-12-28T07:16:15.612Z,4.22
2022-12-28T07:18:42.428Z,4.23
2022-12-28T07:21:15.704Z,4.23
2022-12-28T07:23:42.558Z,4.25
2022-12-28T07:26:14.783Z,4.22
2022-12-28T07:28:44.655Z,4.28
2022-12-28T07:31:13.799Z,4.29
2022-12-28T07:33:40.792Z,4.31
2022-12-28T07:36:08.498Z,4.32
2022-12-28T07:38:35.613Z,4.35
2022-12-28T07:41:07.677Z,4.38
2022-12-28T07:43:35.005Z,4.37
2022-12-28T07:46:10.895Z,4.47
2022-12-28T07:48:39.100Z,4.48
2022-12-28T07:51:27.127Z,4.50
2022-12-28T07:53:54.784Z,4.52
2022-12-28T07:56:22.997Z,4.53
2022-12-28T07:58:51.510Z,4.53
2022-12-28T08:01:19.990Z,4.53
2022-12-28T08:03:46.871Z,4.52
2022-12-28T08:06:19.967Z,4.56
2022-12-28T08:08:49.375Z,4.54
2022-12-28T08:11:21.826Z,4.55
2022-12-28T08:13:50.539Z,4.56
2022-12-28T08:16:19.489Z,4.56
2022-12-28T08:18:47.751Z,4.57
2022-12-28T08:21:18.929Z,4.58
2022-12-28T08:23:46.166Z,4.61
2022-12-28T08:26:14.206Z,4.60
2022-12-28T08:28:42.280Z,4.61
2022-12-28T08:31:12.228Z,4.64
2022-12-28T08:33:38.990Z,4.65
2022-12-28T08:36:06.597Z,4.64
2022-12-28T08:38:33.867Z,4.65
2022-12-28T08:41:02.641Z,4.66
2022-12-28T08:43:31.047Z,4.62
2022-12-28T08:46:06.861Z,4.61
2022-12-28T08:48:34.451Z,4.64
2022-12-28T08:51:03.528Z,4.65
2022-12-28T08:53:30.212Z,4.62
2022-12-28T08:56:06.385Z,4.64
2022-12-28T08:58:33.640Z,4.66
2022-12-28T09:01:18.061Z,4.68
2022-12-28T09:03:46.504Z,4.66
2022-12-28T09:06:15.654Z,4.74
2022-12-28T09:08:42.643Z,4.74
2022-12-28T09:11:13.494Z,4.80
2022-12-28T09:13:40.879Z,4.82
2022-12-28T09:16:10.539Z,4.87
2022-12-28T09:18:38.811Z,4.89
2022-12-28T09:21:11.894Z,4.91
2022-12-28T09:23:38.656Z,4.91
2022-12-28T09:26:16.976Z,4.92
2022-12-28T09:28:48.144Z,4.96
2022-12-28T09:31:15.470Z,5.00
2022-12-28T09:36:47.007Z,5.08
2022-12-28T09:39:17.426Z,5.10
2022-12-28T09:41:49.346Z,5.15
2022-12-28T09:44:37.827Z,5.24
2022-12-28T09:47:19.430Z,5.30
2022-12-28T09:49:49.649Z,5.38
2022-12-28T09:52:29.901Z,5.50
2022-12-28T09:55:03.921Z,5.61
2022-12-28T09:57:37.141Z,5.72
2022-12-28T10:00:06.537Z,5.81
2022-12-28T10:02:37.787Z,5.89
2022-12-28T10:05:05.235Z,5.91
2022-12-28T10:07:33.604Z,5.97
2022-12-28T10:10:00.201Z,6.04
2022-12-28T10:12:29.624Z,6.11
2022-12-28T10:14:57.251Z,6.25
2022-12-28T10:17:28.267Z,6.30
2022-12-28T10:19:57.862Z,6.34
2022-12-28T10:22:27.227Z,6.40
2022-12-28T10:24:54.146Z,6.40
2022-12-28T10:27:31.463Z,6.43
2022-12-28T10:30:01.275Z,6.40
2022-12-28T10:32:48.571Z,6.36
2022-12-28T10:35:23.598Z,6.37
2022-12-28T10:37:50.115Z,6.43
2022-12-28T10:40:28.318Z,6.52
2022-12-28T10:42:56.663Z,6.57
2022-12-28T10:45:33.570Z,6.65
2022-12-28T10:48:02.571Z,6.78
2022-12-28T10:50:47.767Z,6.88
2022-12-28T10:53:31.300Z,6.97
2022-12-28T10:56:02.930Z,7.15
2022-12-28T10:58:31.296Z,7.33
2022-12-28T11:01:12.581Z,7.54
2022-12-28T11:03:42.611Z,7.64
2022-12-28T11:06:10.208Z,7.84
2022-12-28T11:08:37.821Z,8.05
2022-12-28T11:11:04.341Z,8.27
2022-12-28T11:13:30.842Z,8.50
2022-12-28T11:15:57.485Z,8.65
2022-12-28T11:18:24.075Z,8.78
2022-12-28T11:20:53.128Z,8.85
2022-12-28T11:23:31.400Z,8.95
2022-12-28T11:25:59.191Z,8.94
2022-12-28T11:28:25.665Z,9.04
2022-12-28T11:30:52.531Z,9.22
2022-12-28T11:33:27.880Z,9.36
2022-12-28T11:35:59.615Z,9.70
2022-12-28T11:38:44.172Z,9.91
2022-12-28T11:41:33.440Z,10.14
2022-12-28T11:44:02.824Z,10.30
2022-12-28T11:46:35.104Z,10.31
2022-12-28T11:49:35.900Z,10.35
2022-12-28T11:52:14.698Z,10.47
2022-12-28T11:54:53.747Z,10.29
2022-12-28T11:57:36.463Z,10.27
2022-12-28T12:00:22.672Z,10.13
2022-12-28T12:02:56.523Z,9.95
2022-12-28T12:05:38.403Z,9.66
2022-12-28T12:08:16.907Z,9.34
2022-12-28T12:10:45.257Z,9.27
2022-12-28T12:13:23.701Z,9.25
2022-12-28T12:15:52.987Z,9.04
2022-12-28T12:18:25.528Z,8.85
2022-12-28T12:21:21.436Z,8.83
2022-12-28T12:23:52.080Z,8.90
2022-12-28T12:26:35.483Z,9.00
2022-12-28T12:29:14.628Z,9.24
2022-12-28T12:31:48.557Z,9.46
2022-12-28T12:34:46.286Z,9.61
2022-12-28T12:37:31.152Z,9.61
2022-12-28T12:40:09.788Z,9.74
2022-12-28T12:42:55.904Z,9.72
2022-12-28T12:45:31.084Z,9.55
2022-12-28T12:48:16.776Z,9.46
2022-12-28T12:50:57.611Z,9.42
2022-12-28T12:53:56.213Z,9.39
2022-12-28T12:56:35.311Z,9.27
2022-12-28T12:59:21.539Z,9.16
2022-12-28T13:02:12.371Z,9.01
2022-12-28T13:04:45.867Z,8.87
2022-12-28T13:07:22.119Z,8.82
2022-12-28T13:09:50.478Z,8.75
2022-12-28T13:12:18.944Z,8.69
2022-12-28T13:14:47.651Z,8.56
2022-12-28T13:17:19.392Z,8.55
2022-12-28T13:19:46.268Z,8.57
2022-12-28T13:22:33.742Z,8.45
2022-12-28T13:25:00.193Z,8.39
2022-12-28T13:27:35.389Z,8.44
2022-12-28T13:30:03.063Z,8.48
2022-12-28T13:32:38.268Z,8.52
2022-12-28T13:35:19.884Z,8.46
2022-12-28T13:38:09.671Z,8.36
2022-12-28T13:40:38.584Z,8.17
2022-12-28T13:43:13.469Z,8.08
2022-12-28T13:45:39.959Z,7.96
2022-12-28T13:48:08.249Z,7.84
2022-12-28T13:50:38.445Z,7.69
2022-12-28T13:53:11.507Z,7.63
2022-12-28T13:55:43.348Z,7.57
2022-12-28T13:58:14.453Z,7.53
2022-12-28T14:00:45.751Z,7.52
2022-12-28T14:03:13.091Z,7.52
2022-12-28T14:05:45.150Z,7.49
2022-12-28T14:08:11.791Z,7.41
2022-12-28T14:10:38.225Z,7.41
2022-12-28T14:13:04.953Z,7.33
2022-12-28T14:15:39.004Z,7.25
2022-12-28T14:18:08.430Z,7.23
2022-12-28T14:20:49.757Z,7.18
2022-12-28T14:23:20.243Z,7.04
2022-12-28T14:25:46.773Z,6.98
2022-12-28T14:28:31.740Z,6.92
2022-12-28T14:30:58.358Z,6.82
2022-12-28T14:33:27.774Z,6.80
2022-12-28T14:35:59.349Z,6.79
2022-12-28T14:38:32.751Z,6.75
2022-12-28T14:41:01.842Z,6.72
2022-12-28T14:43:32.489Z,6.68
2022-12-28T14:46:30.615Z,6.63
2022-12-28T14:48:57.609Z,6.61
2022-12-28T14:51:30.062Z,6.57
2022-12-28T14:54:17.403Z,6.56
2022-12-28T14:56:53.295Z,6.51
2022-12-28T14:59:25.162Z,6.47
2022-12-28T15:01:52.563Z,6.44
2022-12-28T15:04:28.178Z,6.45
2022-12-28T15:06:54.898Z,6.42
2022-12-28T15:09:21.646Z,6.38
2022-12-28T15:11:48.180Z,6.33
2022-12-28T15:14:14.598Z,6.37
2022-12-28T15:16:41.074Z,6.33
2022-12-28T15:19:07.509Z,6.28
2022-12-28T15:21:33.977Z,6.29
2022-12-28T15:24:00.459Z,6.27
2022-12-28T15:26:27.913Z,6.25
2022-12-28T15:28:54.416Z,6.24
2022-12-28T15:31:21.685Z,6.18
2022-12-28T15:33:48.615Z,6.16
2022-12-28T15:36:21.005Z,6.17
2022-12-28T15:38:48.456Z,6.10
2022-12-28T15:41:35.331Z,6.10
2022-12-28T15:44:02.633Z,6.06
2022-12-28T15:46:29.134Z,6.03
2022-12-28T15:48:55.662Z,6.01
2022-12-28T15:51:22.101Z,5.97
2022-12-28T15:53:48.586Z,5.94
2022-12-28T15:56:27.765Z,5.92
2022-12-28T15:58:56.380Z,5.88
2022-12-28T16:01:24.015Z,5.86
2022-12-28T16:03:55.113Z,5.83
2022-12-28T16:06:23.037Z,5.79
2022-12-28T16:08:52.968Z,5.76
2022-12-28T16:11:20.833Z,5.73
2022-12-28T16:13:52.339Z,5.63
2022-12-28T16:16:19.310Z,5.65
2022-12-28T16:18:45.882Z,5.70
2022-12-28T16:21:12.365Z,5.69
2022-12-28T16:23:42.049Z,5.68
2022-12-28T16:26:10.288Z,5.66
2022-12-28T16:28:37.179Z,5.68
2022-12-28T16:31:04.111Z,5.66
2022-12-28T16:33:31.108Z,5.62
2022-12-28T16:35:59.973Z,5.64
2022-12-28T16:38:28.602Z,5.61
2022-12-28T16:40:56.834Z,5.58
2022-12-28T16:43:23.855Z,5.58
2022-12-28T16:45:50.652Z,5.55
2022-12-28T16:48:17.133Z,5.54
2022-12-28T16:50:43.898Z,5.54
2022-12-28T16:53:10.428Z,5.54
2022-12-28T16:55:42.229Z,5.54
2022-12-28T16:58:09.872Z,5.52
2022-12-28T17:00:36.289Z,5.54
2022-12-28T17:03:02.832Z,5.54
2022-12-28T17:05:35.334Z,5.54
2022-12-28T17:08:03.211Z,5.53
2022-12-28T17:10:30.244Z,5.55
2022-12-28T17:12:57.365Z,5.55
2022-12-28T17:15:23.920Z,5.55
2022-12-28T17:17:50.364Z,5.55
2022-12-28T17:20:16.984Z,5.53
2022-12-28T17:22:43.433Z,5.41
2022-12-28T17:25:09.865Z,5.56
2022-12-28T17:27:36.369Z,5.57
2022-12-28T17:30:03.212Z,5.58
2022-12-28T17:32:29.593Z,5.57
2022-12-28T17:34:55.986Z,5.58
2022-12-28T17:37:22.420Z,5.60
2022-12-28T17:39:48.846Z,5.57
2022-12-28T17:42:15.476Z,5.59
2022-12-28T17:44:41.902Z,5.60
2022-12-28T17:47:08.495Z,5.59
2022-12-28T17:49:34.932Z,5.58
2022-12-28T17:52:01.346Z,5.60
2022-12-28T17:54:27.793Z,5.62
2022-12-28T17:56:54.179Z,5.65
2022-12-28T17:59:20.586Z,5.66
2022-12-28T18:01:47.076Z,5.66
2022-12-28T18:04:13.613Z,5.66
2022-12-28T18:06:40.374Z,5.69
2022-12-28T18:09:07.354Z,5.71
2022-12-28T18:11:33.822Z,5.75
2022-12-28T18:14:00.329Z,5.78
2022-12-28T18:16:27.395Z,5.78
2022-12-28T18:18:54.335Z,5.78
2022-12-28T18:21:23.121Z,5.76
2022-12-28T18:23:51.794Z,5.76
2022-12-28T18:26:26.263Z,5.76
2022-12-28T18:28:54.010Z,5.76
2022-12-28T18:31:20.900Z,5.77
2022-12-28T18:33:48.139Z,5.77
2022-12-28T18:36:17.810Z,5.78
2022-12-28T18:38:46.120Z,5.78
2022-12-28T18:41:15.384Z,5.81
2022-12-28T18:43:42.466Z,5.82
2022-12-28T18:46:09.701Z,5.83
2022-12-28T18:48:38.337Z,5.84
2022-12-28T18:51:08.369Z,5.86
2022-12-28T18:53:35.415Z,5.86
2022-12-28T18:56:05.236Z,5.88
2022-12-28T18:58:34.584Z,5.83
2022-12-28T19:01:06.189Z,5.83
2022-12-28T19:03:33.751Z,5.82
2022-12-28T19:06:03.308Z,5.82
2022-12-28T19:08:33.738Z,5.83
2022-12-28T19:11:01.600Z,5.84
2022-12-28T19:13:31.937Z,5.83
2022-12-28T19:15:58.353Z,5.81
2022-12-28T19:18:24.823Z,5.82
2022-12-28T19:20:58.622Z,5.84
2022-12-28T19:23:25.973Z,5.88
2022-12-28T19:25:54.604Z,5.90
2022-12-28T19:28:21.040Z,5.89
2022-12-28T19:30:47.449Z,5.87
2022-12-28T19:33:13.863Z,5.86
2022-12-28T19:35:40.388Z,5.84
2022-12-28T19:38:06.790Z,5.83
2022-12-28T19:40:33.182Z,5.82
2022-12-28T19:42:59.569Z,5.79
2022-12-28T19:45:25.977Z,5.78
2022-12-28T19:47:52.375Z,5.77
2022-12-28T19:50:18.825Z,5.76
2022-12-28T19:52:45.211Z,5.75
2022-12-28T19:55:11.633Z,5.74
2022-12-28T19:57:38.921Z,5.78
2022-12-28T20:00:07.666Z,5.79
2022-12-28T20:02:34.311Z,5.78
2022-12-28T20:05:00.859Z,5.77
2022-12-28T20:07:27.366Z,5.78
2022-12-28T20:09:53.778Z,5.80
2022-12-28T20:12:22.437Z,5.80
2022-12-28T20:14:49.433Z,5.81
2022-12-28T20:17:15.838Z,5.88
2022-12-28T20:19:42.260Z,5.90
2022-12-28T20:22:08.680Z,5.93
2022-12-28T20:24:35.147Z,5.94
2022-12-28T20:27:02.056Z,5.94
2022-12-28T20:29:28.708Z,5.94
2022-12-28T20:31:55.199Z,5.99
2022-12-28T20:34:21.645Z,5.98
2022-12-28T20:36:49.380Z,5.99
2022-12-28T20:39:15.822Z,6.02
2022-12-28T20:42:01.479Z,6.03
2022-12-28T20:44:32.282Z,6.04
2022-12-28T20:47:00.416Z,6.04
2022-12-28T20:49:27.765Z,6.04
2022-12-28T20:51:54.555Z,6.04
2022-12-28T20:54:21.349Z,6.03
2022-12-28T20:56:53.897Z,6.10
2022-12-28T20:59:21.515Z,6.10
2022-12-28T21:01:48.101Z,6.13
2022-12-28T21:04:14.906Z,6.13
2022-12-28T21:06:41.453Z,6.13
2022-12-28T21:09:07.953Z,6.18
2022-12-28T21:11:34.379Z,6.21
2022-12-28T21:14:00.798Z,6.23
2022-12-28T21:16:27.459Z,6.24
2022-12-28T21:18:53.993Z,6.26
2022-12-28T21:21:21.957Z,6.27
2022-12-28T21:23:48.694Z,6.29
2022-12-28T21:26:17.092Z,6.29
2022-12-28T21:28:44.137Z,6.33
2022-12-28T21:31:11.403Z,6.34
2022-12-28T21:33:38.781Z,6.35
2022-12-28T21:36:20.043Z,6.36
2022-12-28T21:38:47.826Z,6.35
2022-12-28T21:41:41.772Z,6.33
2022-12-28T21:44:12.839Z,6.32
2022-12-28T21:46:39.744Z,6.31
2022-12-28T21:49:06.946Z,6.32
2022-12-28T21:51:38.436Z,6.32
2022-12-28T21:54:11.876Z,6.30
2022-12-28T21:56:38.823Z,6.31
2022-12-28T21:59:06.113Z,6.30
2022-12-28T22:01:50.961Z,6.30
2022-12-28T22:04:38.556Z,6.30
2022-12-28T22:07:06.591Z,6.29
2022-12-28T22:09:52.207Z,6.32
2022-12-28T22:12:37.205Z,6.35
2022-12-28T22:15:31.568Z,6.38
2022-12-28T22:18:00.590Z,6.36
2022-12-28T22:20:28.354Z,6.35
2022-12-28T22:22:57.125Z,6.36
2022-12-28T22:25:24.561Z,6.38
2022-12-28T22:27:51.040Z,6.35
2022-12-28T22:30:17.932Z,6.35
2022-12-28T22:32:44.419Z,6.37
2022-12-28T22:35:11.149Z,6.41
2022-12-28T22:37:37.612Z,6.41
2022-12-28T22:40:05.463Z,6.41
2022-12-28T22:42:32.263Z,6.41
2022-12-28T22:44:58.873Z,6.38
2022-12-28T22:47:28.012Z,6.40
2022-12-28T22:49:54.794Z,6.41
2022-12-28T22:52:21.249Z,6.41
2022-12-28T22:54:47.802Z,6.42
2022-12-28T22:57:14.231Z,6.42
2022-12-28T22:59:40.675Z,6.46
2022-12-28T23:02:07.221Z,6.49
2022-12-28T23:04:33.870Z,6.53
2022-12-28T23:07:03.884Z,6.56
2022-12-28T23:09:31.421Z,6.58
2022-12-28T23:11:58.176Z,6.61
2022-12-28T23:14:43.610Z,6.62
2022-12-28T23:17:12.721Z,6.66
2022-12-28T23:19:58.196Z,6.69
2022-12-28T23:22:46.739Z,6.73
2022-12-28T23:25:37.416Z,6.77
2022-12-28T23:28:10.397Z,6.80
2022-12-28T23:30:41.943Z,6.81
2022-12-28T23:33:08.914Z,6.84
2022-12-28T23:35:35.359Z,6.88
2022-12-28T23:38:01.869Z,6.91
2022-12-28T23:40:28.316Z,6.93
2022-12-28T23:42:54.885Z,6.94
2022-12-28T23:45:21.484Z,6.97
2022-12-28T23:47:48.099Z,6.98
2022-12-28T23:50:16.486Z,6.98
2022-12-28T23:52:43.307Z,7.03
2022-12-28T23:55:10.453Z,7.08
2022-12-28T23:57:37.796Z,7.11
